Terminal Aerodrome Forecast
Issued by NWS

Current Version | Previous Version | Text Only | Print | Product List | Glossary On
Versions: 1 2 3 4 5 6 7 8 9 10 11 12 13
000
FTUS43 KBIS 231136
TAFMOT
TAF
KMOT 231136Z 2312/2412 18004KT P6SM SCT100 SCT200
     FM232000 27006KT P6SM FEW090
     FM232300 03009KT P6SM FEW100
     FM240100 06009KT P6SM FEW100
     FM240500 09007KT P6SM FEW090=

USA.gov is the U.S. government's official web portal to all federal, state and local government web resources and services.